Погода Оринджна неделю

Калифорния, США

01 - 07 сентября
  • 01сентября
    Сегодня
    +18°
    +26°
    Ясно и безоблачно
    ВремяПогодаТемператураВлажностьДавлениеВетер, м/сВероятность осадков
    02:00Ясно и безоблачно+19°C80 %756 мм0.8 м/с2 %
    05:00Ясно и безоблачно+20°C79 %755 мм0.0 м/с2 %
    08:00Ясно и безоблачно+21°C74 %756 мм0.7 м/с2 %
    11:00Ясно и безоблачно+25°C55 %757 мм3.3 м/с2 %
    14:00Ясно и безоблачно+26°C52 %756 мм5.2 м/с2 %
    17:00Ясно и безоблачно+25°C52 %755 мм5.0 м/с2 %
    20:00Ясно и безоблачно+22°C67 %755 мм3.1 м/с2 %
    23:00Ясно и безоблачно+21°C69 %757 мм1.7 м/с2 %
  • 02сентября
    Среда
    +19°
    +26°
    Ясно и безоблачно
    ВремяПогодаТемператураВлажностьДавлениеВетер, м/сВероятность осадков
    02:00Ясно и безоблачно+20°C74 %757 мм0.6 м/с2 %
    05:00Ясно и безоблачно+19°C74 %756 мм0.2 м/с2 %
    08:00Ясно и безоблачно+20°C73 %757 мм1.2 м/с2 %
    11:00Ясно и безоблачно+24°C56 %757 мм3.3 м/с2 %
    14:00Ясно и безоблачно+26°C51 %756 мм5.0 м/с2 %
    17:00Ясно и безоблачно+25°C53 %755 мм4.9 м/с2 %
    20:00Ясно и безоблачно+22°C62 %755 мм2.9 м/с2 %
    23:00Ясно и безоблачно+21°C70 %756 мм1.7 м/с2 %
  • 03сентября
    Четверг
    +19°
    +26°
    Ясно и безоблачно
    ВремяПогодаТемператураВлажностьДавлениеВетер, м/сВероятность осадков
    02:00Ясно и безоблачно+20°C76 %756 мм1.3 м/с2 %
    05:00Практически безоблачно+20°C74 %755 мм1.1 м/с2 %
    08:00Небольшая облачность+21°C73 %756 мм1.9 м/с2 %
    11:00Ясно и безоблачно+24°C58 %755 мм3.7 м/с2 %
    14:00Ясно и безоблачно+25°C56 %754 мм5.3 м/с2 %
    17:00Ясно и безоблачно+24°C63 %753 мм4.8 м/с2 %
    20:00Ясно и безоблачно+22°C71 %753 мм3.2 м/с2 %
    23:00Ясно и безоблачно+21°C74 %754 мм1.7 м/с2 %
  • 04сентября
    Пятница
    +19°
    +26°
    Ясно и безоблачно
    ВремяПогодаТемператураВлажностьДавлениеВетер, м/сВероятность осадков
    02:00Небольшая облачность+21°C79 %754 мм1.2 м/с2 %
    05:00Небольшая облачность+20°C79 %754 мм0.3 м/с2 %
    08:00Ясно и безоблачно+21°C77 %755 мм1.5 м/с2 %
    11:00Ясно и безоблачно+25°C57 %755 мм3.4 м/с2 %
    14:00Ясно и безоблачно+26°C54 %754 мм4.7 м/с2 %
    17:00Ясно и безоблачно+25°C57 %753 мм4.4 м/с2 %
    20:00Ясно и безоблачно+22°C77 %754 мм2.7 м/с2 %
    23:00Ясно и безоблачно+21°C79 %755 мм1.4 м/с2 %
  • 05сентября
    Суббота
    +22°
    +28°
    Ясно и безоблачно
    ВремяПогодаТемператураВлажностьДавлениеВетер, м/сВероятность осадков
    02:00Ясно и безоблачно+21°C83 %755 мм0.3 м/с4 %
    05:00Ясно и безоблачно+20°C82 %754 мм0.0 м/с8 %
    08:00Ясно и безоблачно+21°C75 %755 мм0.5 м/с12 %
    11:00Ясно и безоблачно+26°C53 %755 мм3.1 м/с15 %
    14:00Ясно и безоблачно+28°C48 %754 мм4.5 м/с22 %
    17:00Ясно и безоблачно+26°C48 %753 мм4.5 м/с19 %
    20:00Ясно и безоблачно+24°C65 %754 мм2.7 м/с16 %
    23:00Небольшая облачность+23°C74 %755 мм1.8 м/с24 %
  • 06сентября
    Воскресенье
    +19°
    +29°
    Ясно и безоблачно
    ВремяПогодаТемператураВлажностьДавлениеВетер, м/сВероятность осадков
    05:00Практически безоблачно+22°C75 %754 мм0.3 м/с26 %
    11:00Ясно и безоблачно+26°C90 %755 мм2.3 м/с26 %
    17:00Ясно и безоблачно+28°C63 %753 мм3.3 м/с30 %
    23:00Ясно и безоблачно+22°C64 %754 мм1.8 м/с24 %
  • 07сентября
    Понедельник
    +18°
    +31°
    Ясно и безоблачно
    ВремяПогодаТемператураВлажностьДавлениеВетер, м/сВероятность осадков
    05:00Ясно и безоблачно+20°C78 %754 мм1.4 м/с15 %
    11:00Ясно и безоблачно+28°C44 %755 мм2.4 м/с22 %
    17:00Ясно и безоблачно+28°C39 %753 мм4.4 м/с23 %
    23:00Ясно и безоблачно+21°C75 %754 мм1.7 м/с15 %
Мы используем cookies
Соглашаюсь